Time;durP1;ratioP1;P1;durP2;ratioP2;P2;SDS_P1;SDS_P2;PMS_P1;PMS_P2;Temp;Humidity;BMP_temperature;BMP_pressure;BME280_temperature;BME280_humidity;BME280_pressure;Samples;Min_cycle;Max_cycle;Signal;HPM_P1;HPM_P2
2021/10/31 00:01:12;;;;;;;12.40;7.63;;;10.40;99.90;;;;;;5081997;28;19926;-61
2021/10/31 00:03:38;;;;;;;11.98;7.43;;;10.40;99.90;;;;;;5084590;28;20093;-62
2021/10/31 00:06:05;;;;;;;10.65;6.95;;;10.40;99.90;;;;;;5083169;28;20047;-61
2021/10/31 00:08:31;;;;;;;;;;;10.40;99.90;;;;;;5082399;28;20400;-62
2021/10/31 00:10:57;;;;;;;9.93;6.68;;;10.40;99.90;;;;;;5082378;28;19920;-62
2021/10/31 00:13:24;;;;;;;11.30;7.03;;;10.40;99.90;;;;;;5081062;28;20051;-61
2021/10/31 00:15:50;;;;;;;10.25;6.22;;;10.40;99.90;;;;;;5079972;28;20036;-61
2021/10/31 00:18:16;;;;;;;8.45;6.30;;;10.40;99.90;;;;;;5070358;28;20040;-62
2021/10/31 00:20:42;;;;;;;12.00;6.75;;;10.40;99.90;;;;;;5067256;28;20119;-62
2021/10/31 00:23:08;;;;;;;;;;;10.50;99.90;;;;;;5067937;28;20115;-62
2021/10/31 00:25:34;;;;;;;10.63;6.20;;;10.50;99.90;;;;;;5068457;28;20360;-62
2021/10/31 00:27:59;;;;;;;;;;;10.50;99.90;;;;;;5071732;28;20082;-61
2021/10/31 00:30:28;;;;;;;7.07;4.85;;;10.50;99.90;;;;;;5067857;28;19942;-62
2021/10/31 00:32:54;;;;;;;7.82;5.13;;;10.50;99.90;;;;;;5072275;28;20089;-62
2021/10/31 00:35:19;;;;;;;;;;;10.50;99.90;;;;;;5073170;28;20032;-62
2021/10/31 00:37:45;;;;;;;6.78;4.55;;;10.50;99.90;;;;;;5067613;28;20003;-62
2021/10/31 00:40:11;;;;;;;;;;;10.50;99.90;;;;;;5068618;28;20106;-62
2021/10/31 00:42:37;;;;;;;7.82;4.30;;;10.60;99.90;;;;;;5070875;28;20452;-61
2021/10/31 00:45:04;;;;;;;6.55;4.32;;;10.50;99.90;;;;;;5067747;28;20032;-62
2021/10/31 00:47:30;;;;;;;16.02;5.07;;;10.60;99.90;;;;;;5068013;28;20048;-62
2021/10/31 00:49:55;;;;;;;;;;;10.50;99.90;;;;;;5082278;28;20075;-62
2021/10/31 00:52:21;;;;;;;10.48;4.18;;;10.60;99.90;;;;;;5068775;28;20364;-62
2021/10/31 00:54:48;;;;;;;;;;;10.60;99.90;;;;;;5068536;28;20032;-63
2021/10/31 00:57:14;;;;;;;8.23;4.75;;;10.60;99.90;;;;;;5066655;28;20380;-63
2021/10/31 00:59:40;;;;;;;6.45;3.80;;;10.60;99.90;;;;;;5067892;28;20124;-63
2021/10/31 01:02:10;;;;;;;;;;;10.70;99.90;;;;;;5068213;28;20198;-63
2021/10/31 01:04:40;;;;;;;8.65;4.88;;;10.70;99.90;;;;;;5076042;28;19924;-63
2021/10/31 01:07:19;;;;;;;7.18;4.65;;;10.70;99.90;;;;;;5066476;28;20095;-63
2021/10/31 01:10:08;;;;;;;9.05;5.07;;;10.60;99.90;;;;;;5067287;28;20509;-63
2021/10/31 01:13:01;;;;;;;7.78;4.40;;;10.60;99.90;;;;;;5064285;28;20044;-63
2021/10/31 01:15:30;;;;;;;10.13;4.90;;;10.60;99.90;;;;;;5067016;28;20040;-63
2021/10/31 01:18:33;;;;;;;6.45;4.45;;;10.70;99.90;;;;;;5066564;28;20032;-63
2021/10/31 01:21:35;;;;;;;5.30;3.75;;;10.60;99.90;;;;;;5067264;28;20040;-63
2021/10/31 01:24:27;;;;;;;6.45;4.50;;;10.60;99.90;;;;;;5066457;28;20505;-63
2021/10/31 01:27:11;;;;;;;9.15;4.53;;;10.50;99.90;;;;;;5066069;28;20066;-62
2021/10/31 01:29:54;;;;;;;7.15;4.95;;;10.50;99.90;;;;;;5065569;28;20075;-63
2021/10/31 01:32:27;;;;;;;6.65;4.10;;;10.60;99.90;;;;;;5069219;28;20504;-63
2021/10/31 01:35:30;;;;;;;4.45;3.50;;;10.60;99.90;;;;;;5075011;28;20033;-63
2021/10/31 01:38:27;;;;;;;5.00;3.13;;;10.60;99.90;;;;;;5064334;28;20045;-63
2021/10/31 01:41:23;;;;;;;3.58;2.83;;;10.60;99.90;;;;;;5067793;28;20515;-63
2021/10/31 01:44:20;;;;;;;4.22;2.92;;;10.60;99.90;;;;;;5075732;28;20055;-63
2021/10/31 01:46:51;;;;;;;4.05;2.63;;;10.60;99.90;;;;;;5065730;28;20037;-63
2021/10/31 01:49:31;;;;;;;6.28;3.03;;;10.60;99.90;;;;;;5067968;28;20036;-62
2021/10/31 01:52:00;;;;;;;3.90;3.20;;;10.50;99.90;;;;;;5067028;28;20135;-63
2021/10/31 01:54:33;;;;;;;5.68;3.67;;;10.50;99.90;;;;;;5066871;28;20032;-62
2021/10/31 01:57:02;;;;;;;5.00;3.03;;;10.40;99.90;;;;;;5066210;28;20720;-63
2021/10/31 01:59:31;;;;;;;5.10;3.53;;;10.40;99.90;;;;;;5066917;28;20119;-63
2021/10/31 02:01:59;;;;;;;5.38;3.25;;;10.30;99.90;;;;;;5065200;28;20036;-63
2021/10/31 02:04:26;;;;;;;5.90;2.85;;;10.40;99.90;;;;;;5070814;28;20047;-63
2021/10/31 02:06:53;;;;;;;4.57;3.00;;;10.40;99.90;;;;;;5066638;28;20048;-61
2021/10/31 02:09:22;;;;;;;4.22;3.22;;;10.40;99.90;;;;;;5066500;28;20073;-63
2021/10/31 02:11:49;;;;;;;3.58;2.63;;;10.50;99.90;;;;;;5065995;28;20048;-63
2021/10/31 02:14:15;;;;;;;3.67;2.90;;;10.40;99.90;;;;;;5066458;28;20032;-63
2021/10/31 02:16:42;;;;;;;3.78;3.15;;;10.40;99.90;;;;;;5065247;28;20090;-63
2021/10/31 02:19:21;;;;;;;4.38;2.88;;;10.40;99.90;;;;;;5066131;28;20650;-63
2021/10/31 02:21:55;;;;;;;4.07;3.08;;;10.40;99.90;;;;;;5065666;28;20036;-63
2021/10/31 02:24:21;;;;;;;4.03;2.92;;;10.30;99.90;;;;;;5068262;28;20079;-63
2021/10/31 02:26:49;;;;;;;;;;;10.30;99.90;;;;;;5078909;28;20745;-63
2021/10/31 02:29:15;;;;;;;3.50;2.35;;;10.20;99.90;;;;;;5066637;28;19923;-63
2021/10/31 02:31:40;;;;;;;;;;;10.20;99.90;;;;;;5063947;28;20041;-63
2021/10/31 02:34:06;;;;;;;3.38;2.58;;;10.20;99.90;;;;;;5075330;28;19916;-63
2021/10/31 02:36:32;;;;;;;;;;;10.20;99.90;;;;;;5066501;28;20078;-63
2021/10/31 02:39:01;;;;;;;4.13;3.05;;;10.10;99.90;;;;;;5078174;28;19920;-64
2021/10/31 02:41:31;;;;;;;4.47;3.00;;;10.10;99.90;;;;;;5066134;28;20070;-63
2021/10/31 02:43:57;;;;;;;3.47;2.67;;;10.10;99.90;;;;;;5065251;28;20036;-63
2021/10/31 02:46:26;;;;;;;4.55;2.88;;;10.00;99.90;;;;;;5080326;28;20044;-64
2021/10/31 02:48:53;;;;;;;4.30;2.92;;;10.10;99.90;;;;;;5065120;28;20032;-63
2021/10/31 02:51:30;;;;;;;109.65;8.80;;;10.00;99.90;;;;;;5064523;28;20037;-63
2021/10/31 02:54:04;;;;;;;57.28;6.63;;;9.90;99.90;;;;;;5064519;28;20036;-64
2021/10/31 02:56:40;;;;;;;30.63;6.53;;;9.90;99.90;;;;;;5064630;28;20054;-63
2021/10/31 02:59:19;;;;;;;95.35;8.27;;;9.90;99.90;;;;;;5065469;28;20496;-63
2021/10/31 03:01:47;;;;;;;26.45;5.55;;;9.80;99.90;;;;;;5063278;28;20039;-64
2021/10/31 03:04:14;;;;;;;73.25;7.03;;;9.80;99.90;;;;;;5075102;28;20036;-63
2021/10/31 03:06:41;;;;;;;71.72;8.60;;;9.80;99.90;;;;;;5065523;28;20063;-64
2021/10/31 03:09:07;;;;;;;68.80;9.32;;;9.80;99.90;;;;;;5066198;28;20060;-64
2021/10/31 03:11:32;;;;;;;;;;;9.80;99.90;;;;;;5066211;28;20148;-63
2021/10/31 03:13:58;;;;;;;10.77;7.28;;;9.80;99.90;;;;;;5065641;28;20455;-63
2021/10/31 03:16:23;;;;;;;;;;;9.80;99.90;;;;;;5065165;28;20102;-63
2021/10/31 03:18:49;;;;;;;12.25;8.40;;;9.90;99.90;;;;;;5065624;28;20004;-63
2021/10/31 03:21:14;;;;;;;;;;;9.80;99.90;;;;;;5068250;28;20039;-63
2021/10/31 03:23:40;;;;;;;12.20;8.02;;;9.80;99.90;;;;;;5064532;28;19970;-62
2021/10/31 03:26:06;;;;;;;;;;;9.80;99.90;;;;;;5065349;28;20103;-64
2021/10/31 03:28:31;;;;;;;11.27;7.15;;;9.80;99.90;;;;;;5065353;28;20026;-63
2021/10/31 03:30:57;;;;;;;;;;;9.80;99.90;;;;;;5064364;28;20463;-64
2021/10/31 03:33:23;;;;;;;14.48;8.60;;;9.80;99.90;;;;;;5069597;28;20525;-63
2021/10/31 03:35:48;;;;;;;;;;;9.80;99.90;;;;;;5074445;28;20047;-63
2021/10/31 03:38:14;;;;;;;12.77;7.93;;;9.80;99.90;;;;;;5066531;28;20036;-62
2021/10/31 03:40:40;;;;;;;;;;;9.80;99.90;;;;;;5076232;28;20048;-63
2021/10/31 03:43:05;;;;;;;13.10;8.38;;;9.90;99.90;;;;;;5065642;28;19916;-63
2021/10/31 03:45:31;;;;;;;;;;;9.90;99.90;;;;;;5065560;28;20041;-63
2021/10/31 03:47:57;;;;;;;12.60;8.65;;;9.90;99.90;;;;;;5064815;28;20436;-62
2021/10/31 03:50:23;;;;;;;12.95;8.82;;;9.90;99.90;;;;;;5064841;28;20098;-63
2021/10/31 03:52:49;;;;;;;;;;;9.80;99.90;;;;;;5067015;28;20036;-63
2021/10/31 03:55:15;;;;;;;13.50;9.00;;;9.80;99.90;;;;;;5069351;28;19985;-63
2021/10/31 03:57:41;;;;;;;16.20;9.77;;;9.80;99.90;;;;;;5067821;28;20078;-62
2021/10/31 04:00:09;;;;;;;14.65;10.25;;;9.70;99.90;;;;;;5068035;28;20036;-63
2021/10/31 04:02:36;;;;;;;14.55;10.18;;;9.70;99.90;;;;;;5068153;28;20040;-62
2021/10/31 04:05:02;;;;;;;14.30;9.27;;;9.70;99.90;;;;;;5069456;28;20093;-63
2021/10/31 04:07:28;;;;;;;17.35;10.25;;;9.70;99.90;;;;;;5067988;28;20072;-63
2021/10/31 04:09:54;;;;;;;;;;;9.70;99.90;;;;;;5069162;28;20079;-63
2021/10/31 04:12:20;;;;;;;21.08;9.95;;;9.70;99.90;;;;;;5068594;28;19920;-63
2021/10/31 04:14:45;;;;;;;;;;;9.70;99.90;;;;;;5068764;28;20143;-63
2021/10/31 04:17:11;;;;;;;14.48;9.80;;;9.70;99.90;;;;;;5067871;28;19916;-63
2021/10/31 04:19:36;;;;;;;15.85;10.52;;;9.70;99.90;;;;;;5068840;28;20049;-63
2021/10/31 04:22:02;;;;;;;16.77;11.15;;;9.80;99.90;;;;;;5068383;28;20492;-64
2021/10/31 04:24:28;;;;;;;;;;;9.80;99.90;;;;;;5068614;28;20048;-63
2021/10/31 04:26:54;;;;;;;15.52;9.90;;;9.70;99.90;;;;;;5067109;28;20001;-63
2021/10/31 04:29:19;;;;;;;;;;;9.70;99.90;;;;;;5069155;28;20159;-63
2021/10/31 04:31:45;;;;;;;14.23;9.88;;;9.70;99.90;;;;;;5067301;28;19920;-63
2021/10/31 04:34:10;;;;;;;;;;;9.70;99.90;;;;;;5075583;28;20129;-64
2021/10/31 04:36:36;;;;;;;19.83;12.45;;;9.60;99.90;;;;;;5071093;28;20387;-63
2021/10/31 04:39:02;;;;;;;;;;;9.60;99.90;;;;;;5071573;28;20128;-63
2021/10/31 04:41:30;;;;;;;18.67;11.93;;;9.60;99.90;;;;;;5068169;28;19927;-63
2021/10/31 04:43:55;;;;;;;22.50;12.90;;;9.60;99.90;;;;;;5068085;28;20131;-63
2021/10/31 04:46:21;;;;;;;;;;;9.50;99.90;;;;;;5067869;28;20186;-63
2021/10/31 04:48:47;;;;;;;19.52;12.55;;;9.50;99.90;;;;;;5067771;28;20010;-64
2021/10/31 04:51:12;;;;;;;19.33;12.48;;;9.40;99.90;;;;;;5067814;28;20029;-63
2021/10/31 04:53:38;;;;;;;;;;;9.50;99.90;;;;;;5068187;28;20080;-63
2021/10/31 04:56:04;;;;;;;18.92;11.40;;;9.50;99.90;;;;;;5066254;28;19916;-63
2021/10/31 04:58:29;;;;;;;;;;;9.50;99.90;;;;;;5068468;28;20036;-63
2021/10/31 05:00:56;;;;;;;17.65;10.75;;;9.50;99.90;;;;;;5066904;28;19923;-63
2021/10/31 05:03:22;;;;;;;17.40;11.13;;;9.50;99.90;;;;;;5068277;28;20048;-63
2021/10/31 05:05:47;;;;;;;;;;;9.50;99.90;;;;;;5066230;28;20041;-63
2021/10/31 05:08:13;;;;;;;20.38;11.40;;;9.50;99.90;;;;;;5074283;28;20498;-63
2021/10/31 05:10:39;;;;;;;;;;;9.40;99.90;;;;;;5067645;28;20570;-63
2021/10/31 05:13:05;;;;;;;15.90;9.90;;;9.50;99.90;;;;;;5066985;28;20332;-63
2021/10/31 05:15:30;;;;;;;;;;;9.50;99.90;;;;;;5067465;28;20044;-63
2021/10/31 05:17:56;;;;;;;16.25;10.20;;;9.40;99.90;;;;;;5071282;28;19916;-63
2021/10/31 05:20:21;;;;;;;;;;;9.50;99.90;;;;;;5067497;28;20040;-62
2021/10/31 05:22:47;;;;;;;19.05;11.95;;;9.50;99.90;;;;;;5072796;28;20284;-62
2021/10/31 05:25:13;;;;;;;;;;;9.50;99.90;;;;;;5079885;28;20188;-63
2021/10/31 05:27:39;;;;;;;21.00;11.93;;;9.50;99.90;;;;;;5066149;28;19955;-63
2021/10/31 05:30:06;;;;;;;21.48;13.02;;;9.50;99.90;;;;;;5067473;28;20040;-63
2021/10/31 05:32:33;;;;;;;20.88;12.85;;;9.60;99.90;;;;;;5071686;28;20040;-63
2021/10/31 05:34:59;;;;;;;24.23;14.70;;;9.60;99.90;;;;;;5072542;28;20033;-63
2021/10/31 05:37:31;;;;;;;;;;;9.60;99.90;;;;;;5073731;28;20604;-62
2021/10/31 05:39:57;;;;;;;29.15;14.93;;;9.50;99.90;;;;;;5066558;28;19921;-62
2021/10/31 05:42:23;;;;;;;;;;;9.50;99.90;;;;;;5067522;28;20033;-61
2021/10/31 05:44:48;;;;;;;26.50;15.27;;;9.50;99.90;;;;;;5073081;28;19916;-63
2021/10/31 05:47:14;;;;;;;;;;;9.50;99.90;;;;;;5066390;28;20045;-63
2021/10/31 05:49:39;;;;;;;22.95;14.80;;;9.50;99.90;;;;;;5067029;28;19920;-63
2021/10/31 05:52:05;;;;;;;;;;;9.60;99.90;;;;;;5072013;28;20094;-63
2021/10/31 05:54:32;;;;;;;28.35;15.35;;;9.50;99.90;;;;;;5066972;28;19927;-63
2021/10/31 05:56:58;;;;;;;24.38;14.90;;;9.50;99.90;;;;;;5066846;28;20055;-63
2021/10/31 05:59:23;;;;;;;;;;;9.50;99.90;;;;;;5072402;28;20028;-63
2021/10/31 06:01:49;;;;;;;25.27;15.45;;;9.50;99.90;;;;;;5072846;28;19916;-63
2021/10/31 06:04:14;;;;;;;23.55;14.38;;;9.50;99.90;;;;;;5067041;28;20076;-62
2021/10/31 06:06:40;;;;;;;;;;;9.50;99.90;;;;;;5066900;28;20052;-63
2021/10/31 06:09:06;;;;;;;29.45;17.70;;;9.40;99.90;;;;;;5074181;28;19993;-62
2021/10/31 06:11:33;;;;;;;;;;;9.40;99.90;;;;;;5063454;28;20028;-63
2021/10/31 06:13:59;;;;;;;27.77;15.82;;;9.50;99.90;;;;;;5063908;28;19954;-62
2021/10/31 06:16:27;;;;;;;;;;;9.50;99.90;;;;;;5062544;28;20060;-62
2021/10/31 06:18:53;;;;;;;25.98;14.32;;;9.50;99.90;;;;;;5063588;28;20422;-63
2021/10/31 06:21:19;;;;;;;;;;;9.50;99.90;;;;;;5062748;28;20040;-63
2021/10/31 06:23:44;;;;;;;28.13;15.32;;;9.50;99.90;;;;;;5079790;28;19923;-63
2021/10/31 06:26:10;;;;;;;27.73;14.40;;;9.50;99.90;;;;;;5067368;28;20067;-65
2021/10/31 06:28:35;;;;;;;;;;;9.50;99.90;;;;;;5064375;28;20025;-63
2021/10/31 06:31:01;;;;;;;19.90;13.15;;;9.50;99.90;;;;;;5065303;28;19920;-62
2021/10/31 06:33:27;;;;;;;;;;;9.60;99.90;;;;;;5073700;28;20036;-63
2021/10/31 06:35:53;;;;;;;21.95;14.07;;;9.50;99.90;;;;;;5071725;28;19927;-62
2021/10/31 06:38:18;;;;;;;21.48;12.90;;;9.50;99.90;;;;;;5065884;28;20043;-63
2021/10/31 06:40:44;;;;;;;;;;;9.50;99.90;;;;;;5064563;28;20037;-63
2021/10/31 06:43:10;;;;;;;27.85;15.15;;;9.60;99.90;;;;;;5062359;28;20431;-63
2021/10/31 06:45:37;;;;;;;20.00;13.15;;;9.60;99.90;;;;;;5075730;28;20082;-63
2021/10/31 06:48:04;;;;;;;21.08;12.93;;;9.50;99.90;;;;;;5078678;28;20400;-63
2021/10/31 06:50:30;;;;;;;20.30;13.52;;;9.60;99.90;;;;;;5067083;28;20098;-63
2021/10/31 06:52:55;;;;;;;;;;;9.60;99.90;;;;;;5069169;28;20040;-63
2021/10/31 06:55:21;;;;;;;26.33;16.75;;;9.60;99.90;;;;;;5067875;28;19912;-63
2021/10/31 06:57:46;;;;;;;;;;;9.60;99.90;;;;;;5066123;28;20516;-63
2021/10/31 07:00:12;;;;;;;55.03;30.23;;;9.70;99.90;;;;;;5064121;28;20453;-63
2021/10/31 07:02:38;;;;;;;;;;;9.70;99.90;;;;;;5069767;28;20108;-63
2021/10/31 07:05:05;;;;;;;29.83;18.02;;;9.70;99.90;;;;;;5080574;28;19912;-63
2021/10/31 07:07:30;;;;;;;138.23;73.93;;;9.60;99.90;;;;;;5067313;28;20051;-62
2021/10/31 07:09:56;;;;;;;;;;;9.60;99.90;;;;;;5067439;28;20048;-63
2021/10/31 07:12:22;;;;;;;37.60;21.45;;;9.60;99.90;;;;;;5067446;28;19931;-63
2021/10/31 07:14:47;;;;;;;;;;;9.70;99.90;;;;;;5066052;28;20037;-63
2021/10/31 07:17:13;;;;;;;113.57;63.78;;;9.70;99.90;;;;;;5063504;28;19916;-63
2021/10/31 07:19:38;;;;;;;;;;;9.70;99.90;;;;;;5064693;28;20064;-63
2021/10/31 07:22:04;;;;;;;26.73;16.95;;;9.70;99.90;;;;;;5063952;28;20018;-63
2021/10/31 07:24:30;;;;;;;;;;;9.70;99.90;;;;;;5063829;28;20037;-63
2021/10/31 07:26:56;;;;;;;23.23;13.43;;;9.70;99.90;;;;;;5064933;28;19923;-63
2021/10/31 07:29:21;;;;;;;;;;;9.70;99.90;;;;;;5080688;28;20082;-63
2021/10/31 07:31:48;;;;;;;18.98;12.93;;;9.70;99.90;;;;;;5071631;28;19966;-63
2021/10/31 07:34:14;;;;;;;26.55;13.82;;;9.80;99.90;;;;;;5070163;28;20085;-63
2021/10/31 07:36:41;;;;;;;;;;;9.80;99.90;;;;;;5072187;28;20047;-63
2021/10/31 07:39:11;;;;;;;18.98;11.38;;;9.80;99.90;;;;;;5090413;28;19967;-63
2021/10/31 07:41:37;;;;;;;16.95;11.35;;;9.90;99.90;;;;;;5077783;28;20052;-63
2021/10/31 07:44:04;;;;;;;21.88;13.20;;;9.90;99.90;;;;;;5069993;28;20047;-63
2021/10/31 07:46:32;;;;;;;16.80;11.73;;;9.90;99.90;;;;;;5084763;28;20048;-63
2021/10/31 07:48:57;;;;;;;15.90;10.45;;;10.00;99.90;;;;;;5068885;28;20044;-62
2021/10/31 07:51:23;;;;;;;;;;;10.00;99.90;;;;;;5069411;28;20040;-63
2021/10/31 07:53:48;;;;;;;19.10;11.70;;;10.00;99.90;;;;;;5069520;28;20395;-63
2021/10/31 07:56:16;;;;;;;;;;;10.00;99.90;;;;;;5070809;28;20076;-63
2021/10/31 07:58:44;;;;;;;9.20;6.18;;;10.00;99.90;;;;;;5070208;28;19920;-63
2021/10/31 08:01:11;;;;;;;9.27;6.03;;;10.10;99.90;;;;;;5070337;28;20067;-63
2021/10/31 08:03:38;;;;;;;11.18;6.20;;;10.30;99.90;;;;;;5068830;28;20436;-62
2021/10/31 08:06:03;;;;;;;9.00;5.57;;;10.30;99.90;;;;;;5069930;28;20056;-63
2021/10/31 08:08:29;;;;;;;;;;;10.40;99.90;;;;;;5077920;28;20036;-63
2021/10/31 08:10:55;;;;;;;7.07;5.13;;;10.40;99.90;;;;;;5070817;28;19913;-64
2021/10/31 08:13:25;;;;;;;;;;;10.50;99.90;;;;;;5069625;28;20033;-64
2021/10/31 08:15:52;;;;;;;9.40;6.22;;;10.60;99.90;;;;;;5066832;28;19922;-63
2021/10/31 08:18:18;;;;;;;8.60;6.07;;;10.70;99.90;;;;;;5068263;28;20040;-64
2021/10/31 08:20:43;;;;;;;;;;;10.90;99.90;;;;;;5067609;28;20470;-63
2021/10/31 08:23:10;;;;;;;9.32;5.32;;;11.10;99.90;;;;;;5068520;28;20368;-63
2021/10/31 08:25:36;;;;;;;12.68;7.50;;;11.10;99.90;;;;;;5067811;28;20119;-64
2021/10/31 08:28:03;;;;;;;;;;;11.20;99.90;;;;;;5069896;28;20131;-64
2021/10/31 08:30:31;;;;;;;15.02;9.88;;;11.20;99.90;;;;;;5068757;28;19913;-64
2021/10/31 08:33:05;;;;;;;10.20;7.35;;;11.30;99.90;;;;;;5068779;28;20044;-64
2021/10/31 08:35:31;;;;;;;7.10;5.03;;;11.30;99.90;;;;;;5070317;28;20036;-64
2021/10/31 08:37:56;;;;;;;;;;;11.30;99.90;;;;;;5073291;28;20044;-64
2021/10/31 08:40:22;;;;;;;8.88;5.10;;;11.20;99.90;;;;;;5069922;28;20016;-64
2021/10/31 08:42:48;;;;;;;;;;;11.20;99.90;;;;;;5069919;28;20033;-63
2021/10/31 08:45:13;;;;;;;8.32;5.82;;;11.30;99.90;;;;;;5067112;28;19962;-64
2021/10/31 08:47:39;;;;;;;;;;;11.30;99.90;;;;;;5068416;28;20151;-63
2021/10/31 08:50:06;;;;;;;8.57;5.75;;;11.40;99.90;;;;;;5068296;28;19924;-63
2021/10/31 08:52:32;;;;;;;7.30;5.10;;;11.40;99.90;;;;;;5067195;28;20071;-64
2021/10/31 08:54:57;;;;;;;;;;;11.40;99.90;;;;;;5068710;28;20056;-64
2021/10/31 08:57:23;;;;;;;7.45;5.45;;;11.40;99.90;;;;;;5067773;28;19951;-63
2021/10/31 08:59:48;;;;;;;;;;;11.50;99.90;;;;;;5068063;28;20484;-63
2021/10/31 09:02:14;;;;;;;6.75;5.18;;;11.40;99.90;;;;;;5067394;28;19924;-64
2021/10/31 09:04:40;;;;;;;8.98;6.05;;;11.50;99.90;;;;;;5067665;28;20098;-63
2021/10/31 09:07:07;;;;;;;;;;;11.40;99.90;;;;;;5071816;28;20044;-63
2021/10/31 09:09:32;;;;;;;9.20;6.00;;;11.50;99.90;;;;;;5073861;28;19916;-63
2021/10/31 09:11:58;;;;;;;;;;;11.60;99.90;;;;;;5068436;28;20037;-63
2021/10/31 09:14:24;;;;;;;8.75;4.50;;;11.60;99.90;;;;;;5067058;28;19916;-64
2021/10/31 09:16:49;;;;;;;;;;;11.70;99.90;;;;;;5067904;28;20044;-63
2021/10/31 09:19:17;;;;;;;9.95;6.70;;;11.80;99.90;;;;;;5066943;28;19920;-63
2021/10/31 09:21:43;;;;;;;7.68;3.90;;;11.90;99.90;;;;;;5066721;28;20037;-63
2021/10/31 09:24:09;;;;;;;5.22;3.58;;;12.00;99.90;;;;;;5066819;28;20126;-63
2021/10/31 09:26:35;;;;;;;;;;;12.20;99.90;;;;;;5066108;28;20674;-63
2021/10/31 09:29:01;;;;;;;7.25;3.78;;;12.40;99.90;;;;;;5067918;28;19982;-63
2021/10/31 09:31:27;;;;;;;;;;;12.50;99.90;;;;;;5067427;28;20113;-63
2021/10/31 09:33:54;;;;;;;6.07;3.15;;;12.50;99.90;;;;;;5067638;28;20368;-63
2021/10/31 09:36:20;;;;;;;4.40;3.22;;;12.50;99.90;;;;;;5067473;28;20045;-63
2021/10/31 09:38:45;;;;;;;;;;;12.50;99.90;;;;;;5066638;28;20123;-63
2021/10/31 09:41:14;;;;;;;4.07;2.67;;;12.50;99.90;;;;;;5072911;28;20404;-62
2021/10/31 09:43:47;;;;;;;3.85;2.70;;;12.50;99.90;;;;;;5072229;28;20045;-63
2021/10/31 09:46:13;;;;;;;3.65;2.75;;;12.50;99.90;;;;;;5066107;28;20047;-63
2021/10/31 09:48:38;;;;;;;;;;;12.50;99.90;;;;;;5078420;28;20044;-64
2021/10/31 09:51:05;;;;;;;4.90;2.95;;;12.60;99.90;;;;;;5071499;28;19913;-63
2021/10/31 09:53:31;;;;;;;6.80;3.17;;;12.50;99.90;;;;;;5073920;28;20045;-63
2021/10/31 09:55:57;;;;;;;;;;;12.60;99.90;;;;;;5067189;28;20166;-62
2021/10/31 09:58:26;;;;;;;4.35;3.33;;;12.60;99.90;;;;;;5067025;28;19920;-64
2021/10/31 10:00:57;;;;;;;6.90;3.25;;;12.60;99.90;;;;;;5077531;28;20051;-63
2021/10/31 10:06:18;;;;;;;4.07;3.03;;;12.70;99.90;;;;;;5080779;28;20225;-64
2021/10/31 10:09:01;;;;;;;6.22;4.25;;;12.70;99.90;;;;;;5068300;28;20178;-64
2021/10/31 10:11:29;;;;;;;14.18;7.38;;;12.70;99.90;;;;;;5069757;28;20562;-64
2021/10/31 10:14:23;;;;;;;13.52;8.45;;;12.70;99.90;;;;;;5067079;28;20037;-63
2021/10/31 10:17:11;;;;;;;6.30;4.05;;;12.70;99.90;;;;;;5071523;28;20036;-63
2021/10/31 10:19:44;;;;;;;17.50;9.88;;;12.70;99.90;;;;;;5076929;28;20873;-63
2021/10/31 10:22:14;;;;;;;6.80;4.40;;;12.70;99.90;;;;;;5070602;28;20089;-63
2021/10/31 10:24:49;;;;;;;7.00;4.15;;;12.80;99.90;;;;;;5068203;28;20033;-63
2021/10/31 10:27:15;;;;;;;5.63;3.92;;;12.80;99.90;;;;;;5065133;28;20071;-63
2021/10/31 10:29:42;;;;;;;;;;;12.80;99.90;;;;;;5066136;28;20135;-63
2021/10/31 10:32:13;;;;;;;4.22;2.85;;;12.80;99.90;;;;;;5065806;28;19920;-63
2021/10/31 10:34:47;;;;;;;4.00;3.22;;;12.90;99.90;;;;;;5064416;28;20040;-63
2021/10/31 10:37:17;;;;;;;5.32;4.05;;;12.90;99.90;;;;;;5067263;28;20052;-63
2021/10/31 10:39:46;;;;;;;8.07;3.72;;;12.90;99.90;;;;;;5069373;28;20036;-62
2021/10/31 10:42:24;;;;;;;7.10;4.43;;;13.00;99.90;;;;;;5067011;28;20044;-63
2021/10/31 10:44:50;;;;;;;5.38;3.47;;;13.00;99.90;;;;;;5075441;28;20074;-63
2021/10/31 10:47:19;;;;;;;;;;;13.00;99.90;;;;;;5070994;28;20111;-63
2021/10/31 10:49:47;;;;;;;7.40;3.50;;;13.00;99.90;;;;;;5062387;28;19970;-63
2021/10/31 10:52:21;;;;;;;4.80;3.28;;;13.10;99.90;;;;;;5064367;28;20048;-63
2021/10/31 10:54:59;;;;;;;5.53;2.97;;;13.10;99.90;;;;;;5066639;28;20054;-64
2021/10/31 10:57:27;;;;;;;6.43;3.20;;;13.10;99.90;;;;;;5062860;28;20128;-64
2021/10/31 10:59:55;;;;;;;4.55;3.17;;;13.20;99.90;;;;;;5062541;28;20053;-65
2021/10/31 11:02:22;;;;;;;5.65;3.28;;;13.30;99.90;;;;;;5061955;28;20029;-63
2021/10/31 11:04:59;;;;;;;6.07;3.75;;;13.30;99.90;;;;;;5065438;28;20040;-64
2021/10/31 11:07:41;;;;;;;5.35;3.45;;;13.40;99.90;;;;;;5070288;28;20815;-64
2021/10/31 11:10:10;;;;;;;5.20;3.03;;;13.40;99.90;;;;;;5062554;28;20544;-63
2021/10/31 11:12:38;;;;;;;5.20;3.05;;;13.50;99.90;;;;;;5069949;28;20046;-64
2021/10/31 11:15:14;;;;;;;5.00;3.28;;;13.60;99.90;;;;;;5073612;28;20040;-63
2021/10/31 11:17:42;;;;;;;5.82;3.17;;;13.50;99.90;;;;;;5064595;28;20139;-64
2021/10/31 11:20:10;;;;;;;5.53;3.65;;;13.50;99.90;;;;;;5065770;28;20068;-63
2021/10/31 11:22:37;;;;;;;10.50;3.75;;;13.60;99.90;;;;;;5065456;28;20040;-64
2021/10/31 11:25:03;;;;;;;7.57;4.13;;;13.70;99.90;;;;;;5065177;28;20123;-65
2021/10/31 11:27:31;;;;;;;6.53;4.07;;;13.70;99.90;;;;;;5062907;28;20048;-63
2021/10/31 11:29:59;;;;;;;7.13;3.72;;;13.80;99.90;;;;;;5061534;28;20036;-63
2021/10/31 11:32:27;;;;;;;9.43;3.95;;;13.80;99.90;;;;;;5063151;28;20531;-62
2021/10/31 11:34:56;;;;;;;4.20;3.28;;;13.90;99.90;;;;;;5065965;28;20543;-63
2021/10/31 11:37:28;;;;;;;7.25;4.68;;;14.00;99.90;;;;;;5069729;28;20597;-63
2021/10/31 11:39:57;;;;;;;5.20;3.78;;;14.00;99.90;;;;;;5065431;28;20118;-63
2021/10/31 11:42:26;;;;;;;6.90;4.00;;;14.00;99.90;;;;;;5063931;28;20158;-63
2021/10/31 11:45:08;;;;;;;5.95;4.13;;;13.90;99.90;;;;;;5065164;28;20041;-63
2021/10/31 11:47:37;;;;;;;5.82;4.20;;;14.00;99.90;;;;;;5075594;28;20048;-63
2021/10/31 11:50:16;;;;;;;8.25;4.43;;;14.00;99.90;;;;;;5072549;28;20033;-63
2021/10/31 11:52:57;;;;;;;7.60;4.85;;;14.00;99.90;;;;;;5075125;28;20048;-64
2021/10/31 11:55:27;;;;;;;8.70;5.80;;;14.00;99.90;;;;;;5071119;28;20078;-63
2021/10/31 11:57:56;;;;;;;10.18;6.32;;;14.00;99.90;;;;;;5071507;28;20044;-63
2021/10/31 12:00:24;;;;;;;8.60;6.07;;;13.90;99.90;;;;;;5075191;28;20048;-63
2021/10/31 12:02:57;;;;;;;6.65;5.25;;;13.80;99.90;;;;;;5072702;28;20044;-63
2021/10/31 12:05:36;;;;;;;8.38;5.82;;;13.90;99.90;;;;;;5075904;28;20126;-63
2021/10/31 12:08:03;;;;;;;6.38;5.00;;;13.80;99.90;;;;;;5067979;28;20036;-63
2021/10/31 12:10:33;;;;;;;8.15;5.88;;;13.70;99.90;;;;;;5078920;28;20488;-63
2021/10/31 12:13:11;;;;;;;8.63;6.70;;;13.70;99.90;;;;;;5077507;28;20029;-63
2021/10/31 12:15:36;;;;;;;13.15;7.53;;;13.60;99.90;;;;;;5068909;28;20118;-63
2021/10/31 12:18:06;;;;;;;;;;;13.60;99.90;;;;;;5069773;28;20044;-63
2021/10/31 12:20:52;;;;;;;9.85;7.68;;;13.50;99.90;;;;;;5073657;28;19926;-63
2021/10/31 12:23:20;;;;;;;10.17;7.57;;;13.50;99.90;;;;;;5066319;28;20036;-63
2021/10/31 12:25:45;;;;;;;9.43;7.05;;;13.40;99.90;;;;;;5071702;28;20313;-63
2021/10/31 12:28:43;;;;;;;;;;;13.30;99.90;;;;;;5075322;28;20033;-63
2021/10/31 12:31:27;;;;;;;10.45;7.78;;;13.40;99.90;;;;;;5046452;28;19982;-64
2021/10/31 12:34:15;;;;;;;9.05;7.40;;;13.30;99.90;;;;;;5084388;28;20036;-63
2021/10/31 12:36:45;;;;;;;10.32;7.68;;;13.30;99.90;;;;;;5071849;28;20056;-63
2021/10/31 12:39:32;;;;;;;13.55;7.25;;;13.40;99.90;;;;;;5082980;28;20124;-63
2021/10/31 12:42:17;;;;;;;8.20;6.93;;;13.40;99.90;;;;;;5080671;28;20032;-63
2021/10/31 12:44:45;;;;;;;9.23;6.85;;;13.40;99.90;;;;;;5075424;28;20635;-63
2021/10/31 12:47:18;;;;;;;11.35;6.57;;;13.30;99.90;;;;;;5083584;28;20036;-63
2021/10/31 12:49:46;;;;;;;9.98;6.40;;;13.40;99.90;;;;;;5078141;28;20075;-62
2021/10/31 12:52:38;;;;;;;9.68;6.70;;;13.30;99.90;;;;;;5068420;28;20122;-63
2021/10/31 12:55:10;;;;;;;10.27;5.90;;;13.30;99.90;;;;;;5072517;28;20044;-63
2021/10/31 12:57:37;;;;;;;5.68;5.03;;;13.30;99.90;;;;;;5081342;28;20498;-63
2021/10/31 13:00:06;;;;;;;6.40;5.38;;;13.30;99.90;;;;;;5075613;28;20036;-63
2021/10/31 13:02:34;;;;;;;7.22;5.40;;;13.30;99.90;;;;;;5073657;28;20032;-63
2021/10/31 13:05:06;;;;;;;6.70;5.18;;;13.40;99.90;;;;;;5073750;28;20033;-63
2021/10/31 13:07:49;;;;;;;10.57;4.80;;;13.40;99.90;;;;;;5083175;28;20040;-63
2021/10/31 13:10:22;;;;;;;6.20;4.22;;;13.40;99.90;;;;;;5086175;28;20032;-63
2021/10/31 13:12:50;;;;;;;6.93;4.25;;;13.40;99.90;;;;;;5080649;28;20089;-63
2021/10/31 13:15:22;;;;;;;4.90;3.50;;;13.40;99.90;;;;;;5076712;28;20474;-63
2021/10/31 13:17:49;;;;;;;4.85;3.45;;;13.50;99.90;;;;;;5077288;28;20097;-63